Terminal Aerodrome Forecast
Issued by NWS

Home | Current Version | Previous Version | Text Only | Print | Product List | Glossary On
Versions: 1 2 3 4 5 6 7 8 9 10 11 12 13 14 15 16 17 18 19 20 21 22 23 24 25
421
FTAK31 PAJN 291751
TAFAYA
TAF
PAYA 291751Z 2918/3018 12005KT P6SM VCSH SCT025 OVC040
      TEMPO 2919/2923 5SM -SHRA BR SCT015 BKN025 OVC035
     FM300400 09004KT P6SM OVC040
     FM301600 09006KT P6SM -RA OVC040
      AMD LTD TO CLD VIS AND WIND 3001/3009=

USA.gov is the U.S. government's official web portal to all federal, state and local government web resources and services.